< < Back
Terminal Aerodrome Forecast


Current Version              Previous Versions:   1  2  3  4  5  6  7  8  9  

Terminal Aerodrome Forecast

640
FTUS42 KCHS 021044 AAC
TAFCHS
TAF AMD
KCHS 021044Z 0211/0306 VRB03KT 1SM BR OVC002
      TEMPO 0211/0213 1/2SM FG VV002
     FM021500 29006KT 5SM BR SCT002 OVC008
     FM021800 30008KT P6SM BKN025
     FM030000 07008KT P6SM SCT005 BKN015=

Latest METAR

943
SAUS80 KWBC 022000 RRB
MTRCHS
METAR KCHS 021956Z 25009KT 10SM FEW030 SCT250 23/14 A3019 RMK AO2 SLP222
T02330144


USA.gov is the U.S. government's official web portal to all federal, state and local government web resources and services.